sensor_id;sensor_type;location;lat;lon;timestamp;P1;durP1;ratioP1;P2;durP2;ratioP2
1603;SDS011;795;49.296;11.348;2023-06-26T00:00:53;43.50;;;12.00;;
1603;SDS011;795;49.296;11.348;2023-06-26T00:03:20;42.10;;;11.10;;
1603;SDS011;795;49.296;11.348;2023-06-26T00:05:47;43.03;;;10.97;;
1603;SDS011;795;49.296;11.348;2023-06-26T00:08:14;41.20;;;11.67;;
1603;SDS011;795;49.296;11.348;2023-06-26T00:10:41;40.80;;;11.73;;
1603;SDS011;795;49.296;11.348;2023-06-26T00:13:08;40.00;;;10.57;;
1603;SDS011;795;49.296;11.348;2023-06-26T00:15:38;41.83;;;11.73;;
1603;SDS011;795;49.296;11.348;2023-06-26T00:18:05;40.70;;;10.77;;
1603;SDS011;795;49.296;11.348;2023-06-26T00:20:32;42.30;;;10.73;;
1603;SDS011;795;49.296;11.348;2023-06-26T00:23:00;42.87;;;12.20;;
1603;SDS011;795;49.296;11.348;2023-06-26T00:25:27;42.00;;;12.03;;
1603;SDS011;795;49.296;11.348;2023-06-26T00:27:54;39.57;;;10.47;;
1603;SDS011;795;49.296;11.348;2023-06-26T00:30:21;39.80;;;10.93;;
1603;SDS011;795;49.296;11.348;2023-06-26T00:32:48;42.07;;;11.73;;
1603;SDS011;795;49.296;11.348;2023-06-26T00:35:15;39.67;;;11.00;;
1603;SDS011;795;49.296;11.348;2023-06-26T00:37:42;38.87;;;10.57;;
1603;SDS011;795;49.296;11.348;2023-06-26T00:40:09;37.90;;;10.97;;
1603;SDS011;795;49.296;11.348;2023-06-26T00:42:36;37.67;;;11.57;;
1603;SDS011;795;49.296;11.348;2023-06-26T00:45:04;38.13;;;11.40;;
1603;SDS011;795;49.296;11.348;2023-06-26T00:47:31;39.20;;;10.47;;
1603;SDS011;795;49.296;11.348;2023-06-26T00:49:59;39.73;;;12.50;;
1603;SDS011;795;49.296;11.348;2023-06-26T00:52:26;38.77;;;11.27;;
1603;SDS011;795;49.296;11.348;2023-06-26T00:54:53;39.60;;;11.80;;
1603;SDS011;795;49.296;11.348;2023-06-26T00:57:21;39.17;;;12.17;;
1603;SDS011;795;49.296;11.348;2023-06-26T00:59:48;37.50;;;10.97;;
1603;SDS011;795;49.296;11.348;2023-06-26T01:02:16;39.10;;;11.90;;
1603;SDS011;795;49.296;11.348;2023-06-26T01:04:49;40.03;;;11.57;;
1603;SDS011;795;49.296;11.348;2023-06-26T01:07:18;41.23;;;12.07;;
1603;SDS011;795;49.296;11.348;2023-06-26T01:09:49;38.67;;;11.30;;
1603;SDS011;795;49.296;11.348;2023-06-26T01:12:16;39.77;;;11.73;;
1603;SDS011;795;49.296;11.348;2023-06-26T01:14:43;40.53;;;12.20;;
1603;SDS011;795;49.296;11.348;2023-06-26T01:17:10;40.47;;;11.87;;
1603;SDS011;795;49.296;11.348;2023-06-26T01:19:40;41.50;;;11.83;;
1603;SDS011;795;49.296;11.348;2023-06-26T01:22:14;39.60;;;11.93;;
1603;SDS011;795;49.296;11.348;2023-06-26T01:25:12;38.73;;;10.50;;
1603;SDS011;795;49.296;11.348;2023-06-26T01:28:21;38.60;;;11.80;;
1603;SDS011;795;49.296;11.348;2023-06-26T01:30:51;40.63;;;11.43;;
1603;SDS011;795;49.296;11.348;2023-06-26T01:33:21;37.30;;;10.37;;
1603;SDS011;795;49.296;11.348;2023-06-26T01:35:48;40.00;;;11.50;;
1603;SDS011;795;49.296;11.348;2023-06-26T01:38:16;39.70;;;12.07;;
1603;SDS011;795;49.296;11.348;2023-06-26T01:40:52;38.80;;;12.20;;
1603;SDS011;795;49.296;11.348;2023-06-26T01:43:24;38.97;;;10.57;;
1603;SDS011;795;49.296;11.348;2023-06-26T01:51:37;35.50;;;9.70;;
1603;SDS011;795;49.296;11.348;2023-06-26T01:54:14;36.37;;;10.20;;
1603;SDS011;795;49.296;11.348;2023-06-26T01:56:49;36.37;;;11.00;;
1603;SDS011;795;49.296;11.348;2023-06-26T01:59:20;35.07;;;10.60;;
1603;SDS011;795;49.296;11.348;2023-06-26T02:01:50;35.87;;;10.60;;
1603;SDS011;795;49.296;11.348;2023-06-26T02:04:18;35.20;;;10.00;;
1603;SDS011;795;49.296;11.348;2023-06-26T02:06:46;36.63;;;11.33;;
1603;SDS011;795;49.296;11.348;2023-06-26T02:09:13;38.47;;;11.30;;
1603;SDS011;795;49.296;11.348;2023-06-26T02:11:40;38.10;;;10.67;;
1603;SDS011;795;49.296;11.348;2023-06-26T02:14:07;34.70;;;10.60;;
1603;SDS011;795;49.296;11.348;2023-06-26T02:16:35;35.00;;;11.43;;
1603;SDS011;795;49.296;11.348;2023-06-26T02:19:02;34.60;;;10.13;;
1603;SDS011;795;49.296;11.348;2023-06-26T02:21:29;35.23;;;10.90;;
1603;SDS011;795;49.296;11.348;2023-06-26T02:23:56;34.17;;;11.50;;
1603;SDS011;795;49.296;11.348;2023-06-26T02:26:23;34.73;;;10.63;;
1603;SDS011;795;49.296;11.348;2023-06-26T02:28:50;33.97;;;11.13;;
1603;SDS011;795;49.296;11.348;2023-06-26T02:31:17;34.57;;;11.07;;
1603;SDS011;795;49.296;11.348;2023-06-26T02:33:45;35.00;;;11.33;;
1603;SDS011;795;49.296;11.348;2023-06-26T02:36:12;34.07;;;10.80;;
1603;SDS011;795;49.296;11.348;2023-06-26T02:38:38;34.30;;;10.87;;
1603;SDS011;795;49.296;11.348;2023-06-26T02:41:06;33.50;;;10.63;;
1603;SDS011;795;49.296;11.348;2023-06-26T02:43:33;34.90;;;12.03;;
1603;SDS011;795;49.296;11.348;2023-06-26T02:45:59;38.93;;;13.40;;
1603;SDS011;795;49.296;11.348;2023-06-26T02:48:26;34.30;;;11.93;;
1603;SDS011;795;49.296;11.348;2023-06-26T02:50:53;34.83;;;11.63;;
1603;SDS011;795;49.296;11.348;2023-06-26T02:53:20;34.90;;;11.93;;
1603;SDS011;795;49.296;11.348;2023-06-26T02:55:47;34.20;;;11.20;;
1603;SDS011;795;49.296;11.348;2023-06-26T02:58:14;37.20;;;12.00;;
1603;SDS011;795;49.296;11.348;2023-06-26T03:00:41;34.63;;;11.40;;
1603;SDS011;795;49.296;11.348;2023-06-26T03:03:09;38.20;;;11.37;;
1603;SDS011;795;49.296;11.348;2023-06-26T03:05:36;53.13;;;10.97;;
1603;SDS011;795;49.296;11.348;2023-06-26T03:08:03;33.87;;;12.20;;
1603;SDS011;795;49.296;11.348;2023-06-26T03:10:31;33.33;;;11.30;;
1603;SDS011;795;49.296;11.348;2023-06-26T03:12:58;34.97;;;11.80;;
1603;SDS011;795;49.296;11.348;2023-06-26T03:15:25;32.27;;;11.43;;
1603;SDS011;795;49.296;11.348;2023-06-26T03:17:52;33.07;;;12.57;;
1603;SDS011;795;49.296;11.348;2023-06-26T03:20:19;32.00;;;11.77;;
1603;SDS011;795;49.296;11.348;2023-06-26T03:22:46;32.37;;;11.83;;
1603;SDS011;795;49.296;11.348;2023-06-26T03:25:13;34.47;;;12.03;;
1603;SDS011;795;49.296;11.348;2023-06-26T03:27:40;31.67;;;11.33;;
1603;SDS011;795;49.296;11.348;2023-06-26T03:30:07;32.00;;;11.80;;
1603;SDS011;795;49.296;11.348;2023-06-26T03:32:35;34.33;;;12.07;;
1603;SDS011;795;49.296;11.348;2023-06-26T03:35:02;32.30;;;13.03;;
1603;SDS011;795;49.296;11.348;2023-06-26T03:37:32;33.00;;;11.23;;
1603;SDS011;795;49.296;11.348;2023-06-26T03:39:59;33.53;;;11.53;;
1603;SDS011;795;49.296;11.348;2023-06-26T03:42:26;33.47;;;10.90;;
1603;SDS011;795;49.296;11.348;2023-06-26T03:44:53;33.00;;;12.37;;
1603;SDS011;795;49.296;11.348;2023-06-26T03:47:20;32.60;;;12.30;;
1603;SDS011;795;49.296;11.348;2023-06-26T03:49:47;34.90;;;13.23;;
1603;SDS011;795;49.296;11.348;2023-06-26T03:52:13;36.40;;;12.27;;
1603;SDS011;795;49.296;11.348;2023-06-26T03:54:40;33.87;;;12.63;;
1603;SDS011;795;49.296;11.348;2023-06-26T03:57:07;35.17;;;11.10;;
1603;SDS011;795;49.296;11.348;2023-06-26T03:59:35;30.77;;;10.90;;
1603;SDS011;795;49.296;11.348;2023-06-26T04:02:03;30.73;;;11.17;;
1603;SDS011;795;49.296;11.348;2023-06-26T04:04:30;31.90;;;11.50;;
1603;SDS011;795;49.296;11.348;2023-06-26T04:06:57;32.00;;;11.60;;
1603;SDS011;795;49.296;11.348;2023-06-26T04:09:25;32.30;;;11.83;;
1603;SDS011;795;49.296;11.348;2023-06-26T04:11:52;31.73;;;12.50;;
1603;SDS011;795;49.296;11.348;2023-06-26T04:14:19;32.70;;;12.37;;
1603;SDS011;795;49.296;11.348;2023-06-26T04:16:46;32.07;;;11.60;;
1603;SDS011;795;49.296;11.348;2023-06-26T04:19:13;34.37;;;12.13;;
1603;SDS011;795;49.296;11.348;2023-06-26T04:21:40;31.40;;;11.20;;
1603;SDS011;795;49.296;11.348;2023-06-26T04:24:08;31.20;;;10.80;;
1603;SDS011;795;49.296;11.348;2023-06-26T04:26:35;31.70;;;11.17;;
1603;SDS011;795;49.296;11.348;2023-06-26T04:29:02;33.80;;;12.43;;
1603;SDS011;795;49.296;11.348;2023-06-26T04:31:29;32.40;;;11.97;;
1603;SDS011;795;49.296;11.348;2023-06-26T04:33:56;35.13;;;12.43;;
1603;SDS011;795;49.296;11.348;2023-06-26T04:36:25;33.87;;;12.37;;
1603;SDS011;795;49.296;11.348;2023-06-26T04:38:55;37.33;;;11.50;;
1603;SDS011;795;49.296;11.348;2023-06-26T04:41:22;33.67;;;12.27;;
1603;SDS011;795;49.296;11.348;2023-06-26T04:43:49;34.83;;;12.17;;
1603;SDS011;795;49.296;11.348;2023-06-26T04:46:16;32.77;;;12.60;;
1603;SDS011;795;49.296;11.348;2023-06-26T04:48:43;32.60;;;12.63;;
1603;SDS011;795;49.296;11.348;2023-06-26T04:51:11;34.13;;;11.70;;
1603;SDS011;795;49.296;11.348;2023-06-26T04:53:38;34.77;;;13.33;;
1603;SDS011;795;49.296;11.348;2023-06-26T04:56:05;36.00;;;13.37;;
1603;SDS011;795;49.296;11.348;2023-06-26T04:58:32;35.60;;;13.40;;
1603;SDS011;795;49.296;11.348;2023-06-26T05:00:59;35.13;;;12.63;;
1603;SDS011;795;49.296;11.348;2023-06-26T05:03:27;37.10;;;13.53;;
1603;SDS011;795;49.296;11.348;2023-06-26T05:05:54;37.97;;;12.77;;
1603;SDS011;795;49.296;11.348;2023-06-26T05:08:21;37.80;;;13.77;;
1603;SDS011;795;49.296;11.348;2023-06-26T05:10:52;39.73;;;12.60;;
1603;SDS011;795;49.296;11.348;2023-06-26T05:13:24;39.67;;;14.10;;
1603;SDS011;795;49.296;11.348;2023-06-26T05:15:52;42.00;;;14.40;;
1603;SDS011;795;49.296;11.348;2023-06-26T05:18:19;44.40;;;14.70;;
1603;SDS011;795;49.296;11.348;2023-06-26T05:20:46;42.30;;;13.50;;
1603;SDS011;795;49.296;11.348;2023-06-26T05:23:14;43.23;;;15.13;;
1603;SDS011;795;49.296;11.348;2023-06-26T05:25:42;44.27;;;13.90;;
1603;SDS011;795;49.296;11.348;2023-06-26T05:28:10;41.90;;;12.67;;
1603;SDS011;795;49.296;11.348;2023-06-26T05:30:41;43.47;;;11.03;;
1603;SDS011;795;49.296;11.348;2023-06-26T05:33:10;42.80;;;10.93;;
1603;SDS011;795;49.296;11.348;2023-06-26T05:35:40;46.77;;;11.97;;
1603;SDS011;795;49.296;11.348;2023-06-26T05:38:11;46.17;;;10.90;;
1603;SDS011;795;49.296;11.348;2023-06-26T05:40:40;48.30;;;12.40;;
1603;SDS011;795;49.296;11.348;2023-06-26T05:43:07;51.67;;;12.90;;
1603;SDS011;795;49.296;11.348;2023-06-26T05:45:35;50.60;;;12.10;;
1603;SDS011;795;49.296;11.348;2023-06-26T05:48:02;50.77;;;12.70;;
1603;SDS011;795;49.296;11.348;2023-06-26T05:50:30;51.87;;;13.73;;
1603;SDS011;795;49.296;11.348;2023-06-26T05:52:57;55.80;;;13.17;;
1603;SDS011;795;49.296;11.348;2023-06-26T05:55:25;60.37;;;14.17;;
1603;SDS011;795;49.296;11.348;2023-06-26T05:57:52;57.87;;;14.70;;
1603;SDS011;795;49.296;11.348;2023-06-26T06:00:24;57.37;;;13.50;;
1603;SDS011;795;49.296;11.348;2023-06-26T06:02:52;58.27;;;14.20;;
1603;SDS011;795;49.296;11.348;2023-06-26T06:05:20;57.60;;;14.33;;
1603;SDS011;795;49.296;11.348;2023-06-26T06:07:49;56.03;;;14.20;;
1603;SDS011;795;49.296;11.348;2023-06-26T06:10:16;54.57;;;15.10;;
1603;SDS011;795;49.296;11.348;2023-06-26T06:12:43;40.70;;;13.43;;
1603;SDS011;795;49.296;11.348;2023-06-26T06:15:10;39.10;;;13.70;;
1603;SDS011;795;49.296;11.348;2023-06-26T06:17:37;38.20;;;12.63;;
1603;SDS011;795;49.296;11.348;2023-06-26T06:20:04;39.57;;;13.80;;
1603;SDS011;795;49.296;11.348;2023-06-26T06:22:32;40.10;;;14.30;;
1603;SDS011;795;49.296;11.348;2023-06-26T06:24:59;37.73;;;12.60;;
1603;SDS011;795;49.296;11.348;2023-06-26T06:27:27;39.47;;;13.07;;
1603;SDS011;795;49.296;11.348;2023-06-26T06:29:54;39.93;;;14.93;;
1603;SDS011;795;49.296;11.348;2023-06-26T06:32:21;38.90;;;13.90;;
1603;SDS011;795;49.296;11.348;2023-06-26T06:34:48;39.80;;;13.37;;
1603;SDS011;795;49.296;11.348;2023-06-26T06:37:15;42.67;;;14.80;;
1603;SDS011;795;49.296;11.348;2023-06-26T06:39:42;38.60;;;13.37;;
1603;SDS011;795;49.296;11.348;2023-06-26T06:42:09;61.80;;;16.13;;
1603;SDS011;795;49.296;11.348;2023-06-26T06:44:35;42.03;;;14.07;;
1603;SDS011;795;49.296;11.348;2023-06-26T06:47:03;37.03;;;11.73;;
1603;SDS011;795;49.296;11.348;2023-06-26T06:49:30;40.53;;;13.80;;
1603;SDS011;795;49.296;11.348;2023-06-26T06:51:57;128.40;;;24.53;;
1603;SDS011;795;49.296;11.348;2023-06-26T06:54:25;37.83;;;11.70;;
1603;SDS011;795;49.296;11.348;2023-06-26T06:56:54;36.60;;;11.17;;
1603;SDS011;795;49.296;11.348;2023-06-26T06:59:21;40.80;;;12.40;;
1603;SDS011;795;49.296;11.348;2023-06-26T07:01:48;39.33;;;12.23;;
1603;SDS011;795;49.296;11.348;2023-06-26T07:04:15;40.73;;;12.50;;
1603;SDS011;795;49.296;11.348;2023-06-26T07:06:42;39.17;;;12.30;;
1603;SDS011;795;49.296;11.348;2023-06-26T07:09:09;38.57;;;11.93;;
1603;SDS011;795;49.296;11.348;2023-06-26T07:11:36;43.60;;;13.90;;
1603;SDS011;795;49.296;11.348;2023-06-26T07:14:03;40.13;;;12.77;;
1603;SDS011;795;49.296;11.348;2023-06-26T07:16:30;40.00;;;12.50;;
1603;SDS011;795;49.296;11.348;2023-06-26T07:18:57;44.07;;;12.17;;
1603;SDS011;795;49.296;11.348;2023-06-26T07:21:24;41.30;;;12.93;;
1603;SDS011;795;49.296;11.348;2023-06-26T07:23:52;42.00;;;12.93;;
1603;SDS011;795;49.296;11.348;2023-06-26T07:26:19;39.23;;;11.20;;
1603;SDS011;795;49.296;11.348;2023-06-26T07:29:05;39.37;;;11.80;;
1603;SDS011;795;49.296;11.348;2023-06-26T07:31:33;39.90;;;11.33;;
1603;SDS011;795;49.296;11.348;2023-06-26T07:34:00;39.50;;;11.07;;
1603;SDS011;795;49.296;11.348;2023-06-26T07:36:27;40.40;;;12.90;;
1603;SDS011;795;49.296;11.348;2023-06-26T07:38:54;40.47;;;12.63;;
1603;SDS011;795;49.296;11.348;2023-06-26T07:41:21;40.37;;;12.00;;
1603;SDS011;795;49.296;11.348;2023-06-26T07:43:48;40.20;;;12.40;;
1603;SDS011;795;49.296;11.348;2023-06-26T07:46:15;48.50;;;12.13;;
1603;SDS011;795;49.296;11.348;2023-06-26T07:48:41;42.07;;;13.10;;
1603;SDS011;795;49.296;11.348;2023-06-26T07:51:09;41.77;;;12.50;;
1603;SDS011;795;49.296;11.348;2023-06-26T07:53:39;41.63;;;11.97;;
1603;SDS011;795;49.296;11.348;2023-06-26T07:56:06;43.30;;;13.40;;
1603;SDS011;795;49.296;11.348;2023-06-26T07:58:33;40.77;;;12.30;;
1603;SDS011;795;49.296;11.348;2023-06-26T08:03:55;41.73;;;13.20;;
1603;SDS011;795;49.296;11.348;2023-06-26T08:06:23;40.37;;;11.67;;
1603;SDS011;795;49.296;11.348;2023-06-26T08:08:49;41.43;;;13.20;;
1603;SDS011;795;49.296;11.348;2023-06-26T08:11:16;44.37;;;14.77;;
1603;SDS011;795;49.296;11.348;2023-06-26T08:13:43;41.60;;;12.97;;
1603;SDS011;795;49.296;11.348;2023-06-26T08:16:10;41.80;;;13.00;;
1603;SDS011;795;49.296;11.348;2023-06-26T08:18:37;43.27;;;12.40;;
1603;SDS011;795;49.296;11.348;2023-06-26T08:21:04;43.90;;;13.30;;
1603;SDS011;795;49.296;11.348;2023-06-26T08:23:32;48.23;;;14.50;;
1603;SDS011;795;49.296;11.348;2023-06-26T08:25:59;42.27;;;13.57;;
1603;SDS011;795;49.296;11.348;2023-06-26T08:28:26;40.90;;;12.40;;
1603;SDS011;795;49.296;11.348;2023-06-26T08:30:53;41.67;;;14.10;;
1603;SDS011;795;49.296;11.348;2023-06-26T08:33:21;47.23;;;13.27;;
1603;SDS011;795;49.296;11.348;2023-06-26T08:35:47;53.93;;;15.37;;
1603;SDS011;795;49.296;11.348;2023-06-26T08:38:16;45.73;;;14.53;;
1603;SDS011;795;49.296;11.348;2023-06-26T08:40:47;51.97;;;12.80;;
1603;SDS011;795;49.296;11.348;2023-06-26T08:43:14;41.60;;;13.63;;
1603;SDS011;795;49.296;11.348;2023-06-26T08:45:41;42.30;;;12.87;;
1603;SDS011;795;49.296;11.348;2023-06-26T08:48:09;44.07;;;15.47;;
1603;SDS011;795;49.296;11.348;2023-06-26T08:50:36;41.70;;;13.97;;
1603;SDS011;795;49.296;11.348;2023-06-26T08:56:25;43.10;;;16.10;;
1603;SDS011;795;49.296;11.348;2023-06-26T08:59:03;41.80;;;13.77;;
1603;SDS011;795;49.296;11.348;2023-06-26T09:01:32;42.47;;;15.60;;
1603;SDS011;795;49.296;11.348;2023-06-26T09:04:00;41.70;;;14.00;;
1603;SDS011;795;49.296;11.348;2023-06-26T09:06:27;42.00;;;14.90;;
1603;SDS011;795;49.296;11.348;2023-06-26T09:08:54;43.00;;;14.17;;
1603;SDS011;795;49.296;11.348;2023-06-26T09:11:21;43.00;;;15.57;;
1603;SDS011;795;49.296;11.348;2023-06-26T09:13:48;42.67;;;14.50;;
1603;SDS011;795;49.296;11.348;2023-06-26T09:16:16;41.70;;;15.40;;
1603;SDS011;795;49.296;11.348;2023-06-26T09:18:45;41.00;;;15.23;;
1603;SDS011;795;49.296;11.348;2023-06-26T09:21:12;42.77;;;16.60;;
1603;SDS011;795;49.296;11.348;2023-06-26T09:23:40;42.50;;;15.87;;
1603;SDS011;795;49.296;11.348;2023-06-26T09:26:07;42.93;;;15.00;;
1603;SDS011;795;49.296;11.348;2023-06-26T09:28:35;43.20;;;14.77;;
1603;SDS011;795;49.296;11.348;2023-06-26T09:31:03;43.73;;;15.33;;
1603;SDS011;795;49.296;11.348;2023-06-26T09:33:34;41.63;;;14.03;;
1603;SDS011;795;49.296;11.348;2023-06-26T09:36:05;42.20;;;13.27;;
1603;SDS011;795;49.296;11.348;2023-06-26T09:38:36;41.50;;;13.67;;
1603;SDS011;795;49.296;11.348;2023-06-26T09:41:03;43.70;;;15.47;;
1603;SDS011;795;49.296;11.348;2023-06-26T09:43:30;47.83;;;15.30;;
1603;SDS011;795;49.296;11.348;2023-06-26T09:46:00;40.70;;;14.20;;
1603;SDS011;795;49.296;11.348;2023-06-26T09:48:28;42.10;;;13.80;;
1603;SDS011;795;49.296;11.348;2023-06-26T09:50:55;41.10;;;14.47;;
1603;SDS011;795;49.296;11.348;2023-06-26T09:53:38;40.50;;;14.03;;
1603;SDS011;795;49.296;11.348;2023-06-26T09:56:11;42.70;;;16.17;;
1603;SDS011;795;49.296;11.348;2023-06-26T09:58:43;40.87;;;14.80;;
1603;SDS011;795;49.296;11.348;2023-06-26T10:01:11;40.77;;;15.37;;
1603;SDS011;795;49.296;11.348;2023-06-26T10:03:38;40.67;;;14.53;;
1603;SDS011;795;49.296;11.348;2023-06-26T10:06:05;41.07;;;14.60;;
1603;SDS011;795;49.296;11.348;2023-06-26T10:08:37;41.33;;;15.00;;
1603;SDS011;795;49.296;11.348;2023-06-26T10:11:11;40.50;;;16.23;;
1603;SDS011;795;49.296;11.348;2023-06-26T10:13:49;41.43;;;16.63;;
1603;SDS011;795;49.296;11.348;2023-06-26T10:16:37;42.10;;;16.80;;
1603;SDS011;795;49.296;11.348;2023-06-26T10:19:10;42.17;;;17.30;;
1603;SDS011;795;49.296;11.348;2023-06-26T10:21:43;41.00;;;15.20;;
1603;SDS011;795;49.296;11.348;2023-06-26T10:24:11;41.97;;;16.23;;
1603;SDS011;795;49.296;11.348;2023-06-26T10:26:42;41.13;;;16.97;;
1603;SDS011;795;49.296;11.348;2023-06-26T10:29:14;44.20;;;15.90;;
1603;SDS011;795;49.296;11.348;2023-06-26T10:31:47;41.73;;;15.63;;
1603;SDS011;795;49.296;11.348;2023-06-26T10:34:22;41.50;;;15.10;;
1603;SDS011;795;49.296;11.348;2023-06-26T10:37:00;44.10;;;14.80;;
1603;SDS011;795;49.296;11.348;2023-06-26T10:39:45;41.20;;;14.20;;
1603;SDS011;795;49.296;11.348;2023-06-26T10:42:35;43.30;;;15.40;;
1603;SDS011;795;49.296;11.348;2023-06-26T10:45:27;41.63;;;13.17;;
1603;SDS011;795;49.296;11.348;2023-06-26T10:47:54;40.77;;;14.27;;
1603;SDS011;795;49.296;11.348;2023-06-26T10:56:00;40.03;;;14.80;;
1603;SDS011;795;49.296;11.348;2023-06-26T11:01:21;40.00;;;13.70;;
1603;SDS011;795;49.296;11.348;2023-06-26T11:06:34;41.20;;;13.77;;
1603;SDS011;795;49.296;11.348;2023-06-26T11:09:18;41.53;;;13.77;;
1603;SDS011;795;49.296;11.348;2023-06-26T11:14:22;40.30;;;15.43;;
1603;SDS011;795;49.296;11.348;2023-06-26T11:16:58;39.80;;;14.57;;
1603;SDS011;795;49.296;11.348;2023-06-26T11:19:28;39.03;;;14.37;;
1603;SDS011;795;49.296;11.348;2023-06-26T11:21:59;43.00;;;14.70;;
1603;SDS011;795;49.296;11.348;2023-06-26T11:24:34;41.70;;;12.87;;
1603;SDS011;795;49.296;11.348;2023-06-26T11:27:04;41.83;;;13.27;;
1603;SDS011;795;49.296;11.348;2023-06-26T11:29:31;41.17;;;14.90;;
1603;SDS011;795;49.296;11.348;2023-06-26T11:32:04;40.70;;;15.20;;
1603;SDS011;795;49.296;11.348;2023-06-26T11:34:32;40.00;;;13.43;;
1603;SDS011;795;49.296;11.348;2023-06-26T11:37:02;39.57;;;13.90;;
1603;SDS011;795;49.296;11.348;2023-06-26T11:39:30;40.70;;;15.13;;
1603;SDS011;795;49.296;11.348;2023-06-26T11:41:58;39.63;;;14.90;;
1603;SDS011;795;49.296;11.348;2023-06-26T11:44:30;40.60;;;13.93;;
1603;SDS011;795;49.296;11.348;2023-06-26T11:46:58;42.23;;;15.00;;
1603;SDS011;795;49.296;11.348;2023-06-26T11:49:25;44.10;;;14.83;;
1603;SDS011;795;49.296;11.348;2023-06-26T11:51:55;41.10;;;14.40;;
1603;SDS011;795;49.296;11.348;2023-06-26T11:54:25;41.33;;;13.67;;
1603;SDS011;795;49.296;11.348;2023-06-26T11:56:54;40.70;;;14.50;;
1603;SDS011;795;49.296;11.348;2023-06-26T11:59:23;39.63;;;14.50;;
1603;SDS011;795;49.296;11.348;2023-06-26T12:01:59;38.70;;;12.97;;
1603;SDS011;795;49.296;11.348;2023-06-26T12:04:33;39.77;;;14.47;;
1603;SDS011;795;49.296;11.348;2023-06-26T12:07:06;40.50;;;13.13;;
1603;SDS011;795;49.296;11.348;2023-06-26T12:09:41;40.10;;;13.73;;
1603;SDS011;795;49.296;11.348;2023-06-26T12:12:12;39.87;;;15.53;;
1603;SDS011;795;49.296;11.348;2023-06-26T12:14:43;39.50;;;14.70;;
1603;SDS011;795;49.296;11.348;2023-06-26T12:17:12;38.30;;;12.53;;
1603;SDS011;795;49.296;11.348;2023-06-26T12:19:44;44.40;;;13.50;;
1603;SDS011;795;49.296;11.348;2023-06-26T12:22:19;39.67;;;12.83;;
1603;SDS011;795;49.296;11.348;2023-06-26T12:24:46;41.13;;;12.87;;
1603;SDS011;795;49.296;11.348;2023-06-26T12:27:15;39.17;;;11.73;;
1603;SDS011;795;49.296;11.348;2023-06-26T12:29:51;40.47;;;12.60;;
1603;SDS011;795;49.296;11.348;2023-06-26T12:32:24;40.97;;;12.23;;
1603;SDS011;795;49.296;11.348;2023-06-26T12:34:53;40.83;;;11.87;;
1603;SDS011;795;49.296;11.348;2023-06-26T12:37:24;39.47;;;11.60;;
1603;SDS011;795;49.296;11.348;2023-06-26T12:42:19;39.47;;;11.73;;
1603;SDS011;795;49.296;11.348;2023-06-26T12:44:53;39.87;;;10.90;;
1603;SDS011;795;49.296;11.348;2023-06-26T12:47:27;39.20;;;10.20;;
1603;SDS011;795;49.296;11.348;2023-06-26T12:49:57;41.10;;;12.47;;
1603;SDS011;795;49.296;11.348;2023-06-26T12:52:24;41.03;;;11.27;;
1603;SDS011;795;49.296;11.348;2023-06-26T12:54:52;39.60;;;11.20;;
1603;SDS011;795;49.296;11.348;2023-06-26T12:57:23;39.87;;;11.00;;
1603;SDS011;795;49.296;11.348;2023-06-26T12:59:50;38.77;;;10.77;;
1603;SDS011;795;49.296;11.348;2023-06-26T13:02:17;38.27;;;11.50;;
1603;SDS011;795;49.296;11.348;2023-06-26T13:04:45;39.97;;;12.17;;
1603;SDS011;795;49.296;11.348;2023-06-26T13:07:12;38.40;;;9.87;;
1603;SDS011;795;49.296;11.348;2023-06-26T13:09:40;42.30;;;11.80;;
1603;SDS011;795;49.296;11.348;2023-06-26T13:12:07;39.50;;;11.83;;
1603;SDS011;795;49.296;11.348;2023-06-26T13:14:35;41.23;;;13.57;;
1603;SDS011;795;49.296;11.348;2023-06-26T13:17:02;39.87;;;11.73;;
1603;SDS011;795;49.296;11.348;2023-06-26T13:19:33;39.10;;;10.83;;
1603;SDS011;795;49.296;11.348;2023-06-26T13:22:00;38.67;;;10.87;;
1603;SDS011;795;49.296;11.348;2023-06-26T13:24:27;40.10;;;10.47;;
1603;SDS011;795;49.296;11.348;2023-06-26T13:26:54;38.70;;;10.00;;
1603;SDS011;795;49.296;11.348;2023-06-26T13:29:21;39.33;;;11.17;;
1603;SDS011;795;49.296;11.348;2023-06-26T13:31:48;42.63;;;10.67;;
1603;SDS011;795;49.296;11.348;2023-06-26T13:34:20;38.57;;;9.93;;
1603;SDS011;795;49.296;11.348;2023-06-26T13:36:53;41.97;;;11.53;;
1603;SDS011;795;49.296;11.348;2023-06-26T13:39:20;39.30;;;10.67;;
1603;SDS011;795;49.296;11.348;2023-06-26T13:41:48;39.20;;;11.13;;
1603;SDS011;795;49.296;11.348;2023-06-26T13:44:14;40.87;;;12.17;;
1603;SDS011;795;49.296;11.348;2023-06-26T13:47:01;38.70;;;10.60;;
1603;SDS011;795;49.296;11.348;2023-06-26T13:49:29;40.00;;;12.63;;
1603;SDS011;795;49.296;11.348;2023-06-26T13:51:56;43.07;;;11.20;;
1603;SDS011;795;49.296;11.348;2023-06-26T13:54:23;40.07;;;12.03;;
1603;SDS011;795;49.296;11.348;2023-06-26T13:56:50;39.90;;;12.60;;
1603;SDS011;795;49.296;11.348;2023-06-26T13:59:26;38.10;;;11.47;;
1603;SDS011;795;49.296;11.348;2023-06-26T14:01:53;39.90;;;11.07;;
1603;SDS011;795;49.296;11.348;2023-06-26T14:04:20;38.73;;;11.87;;
1603;SDS011;795;49.296;11.348;2023-06-26T14:06:48;39.57;;;12.07;;
1603;SDS011;795;49.296;11.348;2023-06-26T14:09:15;42.53;;;12.67;;
1603;SDS011;795;49.296;11.348;2023-06-26T14:11:45;38.00;;;10.60;;
1603;SDS011;795;49.296;11.348;2023-06-26T14:14:12;39.23;;;12.60;;
1603;SDS011;795;49.296;11.348;2023-06-26T14:16:39;39.83;;;12.00;;
1603;SDS011;795;49.296;11.348;2023-06-26T14:19:06;39.23;;;12.70;;
1603;SDS011;795;49.296;11.348;2023-06-26T14:21:35;41.00;;;11.30;;
1603;SDS011;795;49.296;11.348;2023-06-26T14:24:02;40.10;;;13.47;;
1603;SDS011;795;49.296;11.348;2023-06-26T14:26:29;39.17;;;12.93;;
1603;SDS011;795;49.296;11.348;2023-06-26T14:29:00;40.30;;;11.47;;
1603;SDS011;795;49.296;11.348;2023-06-26T14:31:27;39.30;;;12.07;;
1603;SDS011;795;49.296;11.348;2023-06-26T14:33:54;40.27;;;11.93;;
1603;SDS011;795;49.296;11.348;2023-06-26T14:36:21;40.57;;;11.67;;
1603;SDS011;795;49.296;11.348;2023-06-26T14:38:48;41.20;;;12.23;;
1603;SDS011;795;49.296;11.348;2023-06-26T14:41:15;44.00;;;13.50;;
1603;SDS011;795;49.296;11.348;2023-06-26T14:43:43;38.27;;;11.47;;
1603;SDS011;795;49.296;11.348;2023-06-26T14:46:12;39.20;;;12.70;;
1603;SDS011;795;49.296;11.348;2023-06-26T14:48:39;40.50;;;12.47;;
1603;SDS011;795;49.296;11.348;2023-06-26T14:51:06;38.80;;;12.50;;
1603;SDS011;795;49.296;11.348;2023-06-26T14:53:33;46.17;;;11.57;;
1603;SDS011;795;49.296;11.348;2023-06-26T14:56:00;39.67;;;13.77;;
1603;SDS011;795;49.296;11.348;2023-06-26T14:58:27;37.83;;;12.00;;
1603;SDS011;795;49.296;11.348;2023-06-26T15:00:57;42.20;;;12.73;;
1603;SDS011;795;49.296;11.348;2023-06-26T15:03:24;37.93;;;11.40;;
1603;SDS011;795;49.296;11.348;2023-06-26T15:05:51;39.37;;;12.07;;
1603;SDS011;795;49.296;11.348;2023-06-26T15:08:18;39.67;;;12.00;;
1603;SDS011;795;49.296;11.348;2023-06-26T15:10:45;41.47;;;13.13;;
1603;SDS011;795;49.296;11.348;2023-06-26T15:13:12;37.10;;;12.07;;
1603;SDS011;795;49.296;11.348;2023-06-26T15:15:39;39.30;;;15.43;;
1603;SDS011;795;49.296;11.348;2023-06-26T15:18:06;38.87;;;12.43;;
1603;SDS011;795;49.296;11.348;2023-06-26T15:20:33;41.20;;;13.60;;
1603;SDS011;795;49.296;11.348;2023-06-26T15:23:01;38.10;;;12.20;;
1603;SDS011;795;49.296;11.348;2023-06-26T15:25:27;44.07;;;13.40;;